Global Glory — 3FHR8 — position and weather

sailwx.info

Track history (hours):
 
Tides and Currents Weather Stations Pressure Air Temp Water Temp Dewpoint Dewpoint Depression Visibility Wind Speed Wind Dir Waves Ship Positions

Global Glory

Last reported at 2015-Jul-04 03:18 UTC. Time now 2015-Jul-30 18:15 UTC.
Position S 30°17' E 030°53'.
Warning: this ship's position is 26 days out of date.

Length 189 m; draft 5.9 m.

Type: Cargo ship. MMSI: 354338000.

Date/timePositionNaut miles runAvg speedWind from/ knotsBaromVisibWave heightAir tempDewpointWater temp
2015-Jul-04 03:18S 30°17' E 030°53'1013.5
2015-Jul-04 02:33S 30°08' E 030°58'1313.4
2015-Jul-04 01:33S 29°56' E 031°06'5 5.0
2015-Jul-04 00:31S 29°52' E 031°02'0 0.0
2015-Jul-03 23:31S 29°52' E 031°02'0 0.0
2015-Jul-03 22:31S 29°52' E 031°02'0 0.0
2015-Jul-03 21:31S 29°52' E 031°02'0 0.0
2015-Jul-03 20:31S 29°52' E 031°02'1 0.6
2015-Jul-03 19:33S 29°53' E 031°03'4 4.2
2015-Jul-03 18:33S 29°49' E 031°06'2 1.9
2015-Jul-03 17:33S 29°48' E 031°07'0 0.1
2015-Jul-03 16:33S 29°48' E 031°07'0 0.0
2015-Jul-03 15:33S 29°48' E 031°07'0 0.0
2015-Jul-03 14:33S 29°48' E 031°07'0 0.0
2015-Jul-03 13:33S 29°48' E 031°07'0 0.0
2015-Jul-03 11:30S 29°48' E 031°07'0 0.0
2015-Jul-03 10:27S 29°48' E 031°07'0 0.0
2015-Jul-03 09:33S 29°48' E 031°07'0 0.0
2015-Jul-03 08:33S 29°48' E 031°07'0 0.0
2015-Jul-03 07:33S 29°48' E 031°07'0 0.1
2015-Jul-03 06:33S 29°48' E 031°07'0 0.1
2015-Jul-03 05:33S 29°48' E 031°07'1 0.5
2015-Jul-03 04:33S 29°48' E 031°08'5 4.5
2015-Jul-03 03:33S 29°45' E 031°11'1212.1
2015-Jul-03 02:33S 29°37' E 031°22'1313.0
2015-Jul-03 01:33S 29°28' E 031°33'  
Track history (hours):
 
Tides and Currents Weather Stations Pressure Air Temp Water Temp Dewpoint Dewpoint Depression Visibility Wind Speed Wind Dir Waves Ship Positions

Global Glory

Last reported at 2015-Jul-04 03:18 UTC. Time now 2015-Jul-30 18:15 UTC.
Position S 30°17' E 030°53'.
Warning: this ship's position is 26 days out of date.

Length 189 m; draft 5.9 m.

Type: Cargo ship. MMSI: 354338000.

Date/timePositionNaut miles runAvg speedWind from/ knotsBaromVisibWave heightAir tempDewpointWater temp
2015-Jul-04 03:18S 30°17' E 030°53'1013.5
2015-Jul-04 02:33S 30°08' E 030°58'1313.4
2015-Jul-04 01:33S 29°56' E 031°06'5 5.0
2015-Jul-04 00:31S 29°52' E 031°02'0 0.0
2015-Jul-03 23:31S 29°52' E 031°02'0 0.0
2015-Jul-03 22:31S 29°52' E 031°02'0 0.0
2015-Jul-03 21:31S 29°52' E 031°02'0 0.0
2015-Jul-03 20:31S 29°52' E 031°02'1 0.6
2015-Jul-03 19:33S 29°53' E 031°03'4 4.2
2015-Jul-03 18:33S 29°49' E 031°06'2 1.9
2015-Jul-03 17:33S 29°48' E 031°07'0 0.1
2015-Jul-03 16:33S 29°48' E 031°07'0 0.0
2015-Jul-03 15:33S 29°48' E 031°07'0 0.0
2015-Jul-03 14:33S 29°48' E 031°07'0 0.0
2015-Jul-03 13:33S 29°48' E 031°07'0 0.0
2015-Jul-03 11:30S 29°48' E 031°07'0 0.0
2015-Jul-03 10:27S 29°48' E 031°07'0 0.0
2015-Jul-03 09:33S 29°48' E 031°07'0 0.0
2015-Jul-03 08:33S 29°48' E 031°07'0 0.0
2015-Jul-03 07:33S 29°48' E 031°07'0 0.1
2015-Jul-03 06:33S 29°48' E 031°07'0 0.1
2015-Jul-03 05:33S 29°48' E 031°07'1 0.5
2015-Jul-03 04:33S 29°48' E 031°08'5 4.5
2015-Jul-03 03:33S 29°45' E 031°11'1212.1
2015-Jul-03 02:33S 29°37' E 031°22'1313.0
2015-Jul-03 01:33S 29°28' E 031°33'  

Dump ship's entire track history